sensor_id;sensor_type;location;lat;lon;timestamp;temperature;humidity
70244;DHT22;57634;51.136;17.024;2023-07-24T00:00:44;23.20;39.30
70244;DHT22;57634;51.136;17.024;2023-07-24T00:03:50;23.20;39.40
70244;DHT22;57634;51.136;17.024;2023-07-24T00:06:51;23.10;39.70
70244;DHT22;57634;51.136;17.024;2023-07-24T00:09:53;23.00;40.10
70244;DHT22;57634;51.136;17.024;2023-07-24T00:12:56;23.00;40.40
70244;DHT22;57634;51.136;17.024;2023-07-24T00:15:57;23.00;40.70
70244;DHT22;57634;51.136;17.024;2023-07-24T00:19:25;22.90;40.60
70244;DHT22;57634;51.136;17.024;2023-07-24T00:22:27;22.90;40.40
70244;DHT22;57634;51.136;17.024;2023-07-24T00:25:28;22.90;40.20
70244;DHT22;57634;51.136;17.024;2023-07-24T00:28:29;22.90;40.20
70244;DHT22;57634;51.136;17.024;2023-07-24T00:31:30;22.90;40.20
70244;DHT22;57634;51.136;17.024;2023-07-24T00:34:32;22.90;40.20
70244;DHT22;57634;51.136;17.024;2023-07-24T00:37:34;22.90;40.30
70244;DHT22;57634;51.136;17.024;2023-07-24T00:40:35;22.90;40.40
70244;DHT22;57634;51.136;17.024;2023-07-24T00:43:37;22.80;40.50
70244;DHT22;57634;51.136;17.024;2023-07-24T00:46:38;22.80;40.50
70244;DHT22;57634;51.136;17.024;2023-07-24T00:49:40;22.80;40.60
70244;DHT22;57634;51.136;17.024;2023-07-24T00:52:42;22.80;40.70
70244;DHT22;57634;51.136;17.024;2023-07-24T00:55:45;22.80;40.70
70244;DHT22;57634;51.136;17.024;2023-07-24T00:58:47;22.80;40.80
70244;DHT22;57634;51.136;17.024;2023-07-24T01:02:15;22.80;40.90
70244;DHT22;57634;51.136;17.024;2023-07-24T01:05:17;22.70;41.40
70244;DHT22;57634;51.136;17.024;2023-07-24T01:08:18;22.70;41.80
70244;DHT22;57634;51.136;17.024;2023-07-24T01:11:27;22.70;42.10
70244;DHT22;57634;51.136;17.024;2023-07-24T01:17:48;22.60;44.40
70244;DHT22;57634;51.136;17.024;2023-07-24T01:20:53;22.60;45.30
70244;DHT22;57634;51.136;17.024;2023-07-24T01:24:30;22.60;45.70
70244;DHT22;57634;51.136;17.024;2023-07-24T01:27:34;22.60;45.10
70244;DHT22;57634;51.136;17.024;2023-07-24T01:30:36;22.50;44.20
70244;DHT22;57634;51.136;17.024;2023-07-24T01:33:38;22.50;43.50
70244;DHT22;57634;51.136;17.024;2023-07-24T01:36:40;22.40;43.20
70244;DHT22;57634;51.136;17.024;2023-07-24T01:39:42;22.40;43.00
70244;DHT22;57634;51.136;17.024;2023-07-24T01:42:44;22.40;42.80
70244;DHT22;57634;51.136;17.024;2023-07-24T01:45:46;22.40;42.70
70244;DHT22;57634;51.136;17.024;2023-07-24T01:48:47;22.40;42.60
70244;DHT22;57634;51.136;17.024;2023-07-24T01:51:49;22.40;42.60
70244;DHT22;57634;51.136;17.024;2023-07-24T01:54:50;22.40;42.60
70244;DHT22;57634;51.136;17.024;2023-07-24T01:58:20;22.30;42.70
70244;DHT22;57634;51.136;17.024;2023-07-24T02:01:22;22.30;42.90
70244;DHT22;57634;51.136;17.024;2023-07-24T02:04:23;22.20;43.00
70244;DHT22;57634;51.136;17.024;2023-07-24T02:07:25;22.20;43.10
70244;DHT22;57634;51.136;17.024;2023-07-24T02:10:26;22.20;43.20
70244;DHT22;57634;51.136;17.024;2023-07-24T02:13:28;22.10;43.20
70244;DHT22;57634;51.136;17.024;2023-07-24T02:16:29;22.10;43.30
70244;DHT22;57634;51.136;17.024;2023-07-24T02:19:31;22.10;43.30
70244;DHT22;57634;51.136;17.024;2023-07-24T02:22:32;22.10;43.40
70244;DHT22;57634;51.136;17.024;2023-07-24T02:25:35;22.10;43.40
70244;DHT22;57634;51.136;17.024;2023-07-24T02:28:36;22.20;43.40
70244;DHT22;57634;51.136;17.024;2023-07-24T02:31:38;22.20;43.30
70244;DHT22;57634;51.136;17.024;2023-07-24T02:34:40;22.20;43.40
70244;DHT22;57634;51.136;17.024;2023-07-24T02:37:41;22.20;43.30
70244;DHT22;57634;51.136;17.024;2023-07-24T02:41:08;22.20;43.10
70244;DHT22;57634;51.136;17.024;2023-07-24T02:44:09;22.20;43.30
70244;DHT22;57634;51.136;17.024;2023-07-24T02:47:10;22.20;43.30
70244;DHT22;57634;51.136;17.024;2023-07-24T02:50:12;22.20;43.30
70244;DHT22;57634;51.136;17.024;2023-07-24T02:53:14;22.30;43.40
70244;DHT22;57634;51.136;17.024;2023-07-24T02:56:15;22.20;43.30
70244;DHT22;57634;51.136;17.024;2023-07-24T02:59:17;22.20;43.40
70244;DHT22;57634;51.136;17.024;2023-07-24T03:02:18;22.20;43.50
70244;DHT22;57634;51.136;17.024;2023-07-24T03:05:20;22.20;43.70
70244;DHT22;57634;51.136;17.024;2023-07-24T03:08:21;22.20;43.70
70244;DHT22;57634;51.136;17.024;2023-07-24T03:11:22;22.20;43.80
70244;DHT22;57634;51.136;17.024;2023-07-24T03:14:24;22.10;43.90
70244;DHT22;57634;51.136;17.024;2023-07-24T03:17:27;22.00;44.10
70244;DHT22;57634;51.136;17.024;2023-07-24T03:20:28;22.00;44.40
70244;DHT22;57634;51.136;17.024;2023-07-24T03:23:56;21.90;44.60
70244;DHT22;57634;51.136;17.024;2023-07-24T03:26:58;21.80;45.00
70244;DHT22;57634;51.136;17.024;2023-07-24T03:30:01;21.80;45.20
70244;DHT22;57634;51.136;17.024;2023-07-24T03:33:03;21.80;45.50
70244;DHT22;57634;51.136;17.024;2023-07-24T03:36:05;21.80;45.60
70244;DHT22;57634;51.136;17.024;2023-07-24T03:39:06;21.80;45.60
70244;DHT22;57634;51.136;17.024;2023-07-24T03:42:10;21.90;45.70
70244;DHT22;57634;51.136;17.024;2023-07-24T03:45:13;22.00;45.60
70244;DHT22;57634;51.136;17.024;2023-07-24T03:48:14;22.10;45.60
70244;DHT22;57634;51.136;17.024;2023-07-24T03:51:16;22.20;45.40
70244;DHT22;57634;51.136;17.024;2023-07-24T03:54:18;22.30;45.30
70244;DHT22;57634;51.136;17.024;2023-07-24T03:57:19;22.40;45.10
70244;DHT22;57634;51.136;17.024;2023-07-24T04:00:21;22.50;44.90
70244;DHT22;57634;51.136;17.024;2023-07-24T04:03:48;22.60;44.80
70244;DHT22;57634;51.136;17.024;2023-07-24T04:06:49;22.70;44.80
70244;DHT22;57634;51.136;17.024;2023-07-24T04:09:51;22.70;44.60
70244;DHT22;57634;51.136;17.024;2023-07-24T04:12:52;22.80;44.60
70244;DHT22;57634;51.136;17.024;2023-07-24T04:15:54;23.00;44.40
70244;DHT22;57634;51.136;17.024;2023-07-24T04:18:59;23.20;44.30
70244;DHT22;57634;51.136;17.024;2023-07-24T04:22:00;23.40;43.90
70244;DHT22;57634;51.136;17.024;2023-07-24T04:25:02;23.70;43.60
70244;DHT22;57634;51.136;17.024;2023-07-24T04:28:03;23.90;43.10
70244;DHT22;57634;51.136;17.024;2023-07-24T04:31:05;24.20;42.70
70244;DHT22;57634;51.136;17.024;2023-07-24T04:34:06;24.40;42.30
70244;DHT22;57634;51.136;17.024;2023-07-24T04:37:07;24.60;41.90
70244;DHT22;57634;51.136;17.024;2023-07-24T04:40:09;24.60;41.40
70244;DHT22;57634;51.136;17.024;2023-07-24T04:43:38;24.70;41.30
70244;DHT22;57634;51.136;17.024;2023-07-24T04:46:39;24.70;41.30
70244;DHT22;57634;51.136;17.024;2023-07-24T04:49:41;24.70;41.10
70244;DHT22;57634;51.136;17.024;2023-07-24T04:52:42;24.70;41.10
70244;DHT22;57634;51.136;17.024;2023-07-24T04:55:45;24.60;41.00
70244;DHT22;57634;51.136;17.024;2023-07-24T04:58:47;24.60;41.10
70244;DHT22;57634;51.136;17.024;2023-07-24T05:01:49;24.60;41.10
70244;DHT22;57634;51.136;17.024;2023-07-24T05:04:50;24.60;41.20
70244;DHT22;57634;51.136;17.024;2023-07-24T05:07:51;24.70;41.10
70244;DHT22;57634;51.136;17.024;2023-07-24T05:10:57;24.70;40.90
70244;DHT22;57634;51.136;17.024;2023-07-24T05:14:00;24.80;40.70
70244;DHT22;57634;51.136;17.024;2023-07-24T05:17:01;25.00;40.60
70244;DHT22;57634;51.136;17.024;2023-07-24T05:20:04;25.00;40.40
70244;DHT22;57634;51.136;17.024;2023-07-24T05:23:31;25.10;40.30
70244;DHT22;57634;51.136;17.024;2023-07-24T05:26:33;25.40;40.10
70244;DHT22;57634;51.136;17.024;2023-07-24T05:29:34;25.70;39.80
70244;DHT22;57634;51.136;17.024;2023-07-24T05:32:35;25.90;39.30
70244;DHT22;57634;51.136;17.024;2023-07-24T05:35:36;26.20;38.80
70244;DHT22;57634;51.136;17.024;2023-07-24T05:38:38;26.40;38.50
70244;DHT22;57634;51.136;17.024;2023-07-24T05:41:39;26.60;37.90
70244;DHT22;57634;51.136;17.024;2023-07-24T05:44:40;26.90;37.70
70244;DHT22;57634;51.136;17.024;2023-07-24T05:47:42;27.30;37.20
70244;DHT22;57634;51.136;17.024;2023-07-24T05:50:43;27.90;36.70
70244;DHT22;57634;51.136;17.024;2023-07-24T05:53:44;28.40;35.70
70244;DHT22;57634;51.136;17.024;2023-07-24T05:56:46;28.80;34.90
70244;DHT22;57634;51.136;17.024;2023-07-24T05:59:47;28.90;34.20
70244;DHT22;57634;51.136;17.024;2023-07-24T06:02:51;28.90;34.00
70244;DHT22;57634;51.136;17.024;2023-07-24T06:06:18;28.90;33.90
70244;DHT22;57634;51.136;17.024;2023-07-24T06:09:20;28.70;33.60
70244;DHT22;57634;51.136;17.024;2023-07-24T06:12:22;28.40;33.60
70244;DHT22;57634;51.136;17.024;2023-07-24T06:15:23;28.20;33.90
70244;DHT22;57634;51.136;17.024;2023-07-24T06:18:25;27.80;34.00
70244;DHT22;57634;51.136;17.024;2023-07-24T06:21:26;27.50;34.40
70244;DHT22;57634;51.136;17.024;2023-07-24T06:24:27;27.30;34.80
70244;DHT22;57634;51.136;17.024;2023-07-24T06:27:29;27.00;35.20
70244;DHT22;57634;51.136;17.024;2023-07-24T06:30:30;26.80;35.50
70244;DHT22;57634;51.136;17.024;2023-07-24T06:33:31;26.60;35.90
70244;DHT22;57634;51.136;17.024;2023-07-24T06:36:32;26.40;36.20
70244;DHT22;57634;51.136;17.024;2023-07-24T06:39:34;26.30;36.60
70244;DHT22;57634;51.136;17.024;2023-07-24T06:42:35;26.20;36.80
70244;DHT22;57634;51.136;17.024;2023-07-24T06:45:36;26.10;37.00
70244;DHT22;57634;51.136;17.024;2023-07-24T06:49:05;26.10;37.10
70244;DHT22;57634;51.136;17.024;2023-07-24T06:52:07;26.20;37.50
70244;DHT22;57634;51.136;17.024;2023-07-24T06:55:09;26.50;37.20
70244;DHT22;57634;51.136;17.024;2023-07-24T06:58:10;26.70;36.60
70244;DHT22;57634;51.136;17.024;2023-07-24T07:01:12;26.90;36.00
70244;DHT22;57634;51.136;17.024;2023-07-24T07:04:13;27.10;35.70
70244;DHT22;57634;51.136;17.024;2023-07-24T07:07:15;27.30;35.60
70244;DHT22;57634;51.136;17.024;2023-07-24T07:10:16;27.70;35.40
70244;DHT22;57634;51.136;17.024;2023-07-24T07:13:19;28.70;35.10
70244;DHT22;57634;51.136;17.024;2023-07-24T07:16:20;30.20;33.10
70244;DHT22;57634;51.136;17.024;2023-07-24T07:19:22;31.70;31.10
70244;DHT22;57634;51.136;17.024;2023-07-24T07:22:23;33.00;29.40
70244;DHT22;57634;51.136;17.024;2023-07-24T07:25:24;33.90;28.40
70244;DHT22;57634;51.136;17.024;2023-07-24T07:28:25;35.10;27.60
70244;DHT22;57634;51.136;17.024;2023-07-24T07:31:53;36.70;26.40
70244;DHT22;57634;51.136;17.024;2023-07-24T07:34:54;38.50;24.50
70244;DHT22;57634;51.136;17.024;2023-07-24T07:37:55;39.90;23.30
70244;DHT22;57634;51.136;17.024;2023-07-24T07:40:56;41.10;22.00
70244;DHT22;57634;51.136;17.024;2023-07-24T07:43:58;41.90;21.20
70244;DHT22;57634;51.136;17.024;2023-07-24T07:46:59;42.90;20.60
70244;DHT22;57634;51.136;17.024;2023-07-24T07:50:00;43.90;19.60
70244;DHT22;57634;51.136;17.024;2023-07-24T07:53:02;44.60;18.50
70244;DHT22;57634;51.136;17.024;2023-07-24T07:56:03;45.30;18.00
70244;DHT22;57634;51.136;17.024;2023-07-24T07:59:05;45.90;17.50
70244;DHT22;57634;51.136;17.024;2023-07-24T08:02:07;46.40;16.80
70244;DHT22;57634;51.136;17.024;2023-07-24T08:05:10;46.80;16.50
70244;DHT22;57634;51.136;17.024;2023-07-24T08:08:12;46.90;16.10
70244;DHT22;57634;51.136;17.024;2023-07-24T08:14:56;46.30;16.20
70244;DHT22;57634;51.136;17.024;2023-07-24T08:17:58;45.80;16.10
70244;DHT22;57634;51.136;17.024;2023-07-24T08:20:59;45.60;16.10
70244;DHT22;57634;51.136;17.024;2023-07-24T08:24:01;45.40;16.20
70244;DHT22;57634;51.136;17.024;2023-07-24T08:27:05;45.60;16.20
70244;DHT22;57634;51.136;17.024;2023-07-24T08:30:07;45.70;16.30
70244;DHT22;57634;51.136;17.024;2023-07-24T08:33:08;45.80;16.30
70244;DHT22;57634;51.136;17.024;2023-07-24T08:36:10;45.80;16.20
70244;DHT22;57634;51.136;17.024;2023-07-24T08:39:14;45.30;16.10
70244;DHT22;57634;51.136;17.024;2023-07-24T08:42:15;44.70;16.50
70244;DHT22;57634;51.136;17.024;2023-07-24T08:45:17;44.70;16.80
70244;DHT22;57634;51.136;17.024;2023-07-24T08:48:20;44.70;16.80
70244;DHT22;57634;51.136;17.024;2023-07-24T08:51:48;44.70;16.80
70244;DHT22;57634;51.136;17.024;2023-07-24T08:54:50;45.20;16.50
70244;DHT22;57634;51.136;17.024;2023-07-24T08:57:53;45.50;16.30
70244;DHT22;57634;51.136;17.024;2023-07-24T09:00:57;46.00;16.10
70244;DHT22;57634;51.136;17.024;2023-07-24T09:04:00;46.40;15.70
70244;DHT22;57634;51.136;17.024;2023-07-24T09:07:02;46.30;15.60
70244;DHT22;57634;51.136;17.024;2023-07-24T09:10:04;46.20;15.60
70244;DHT22;57634;51.136;17.024;2023-07-24T09:13:07;45.80;15.60
70244;DHT22;57634;51.136;17.024;2023-07-24T09:16:09;44.90;16.00
70244;DHT22;57634;51.136;17.024;2023-07-24T09:22:53;43.70;16.50
70244;DHT22;57634;51.136;17.024;2023-07-24T09:25:55;42.60;17.20
70244;DHT22;57634;51.136;17.024;2023-07-24T09:28:56;41.60;17.80
70244;DHT22;57634;51.136;17.024;2023-07-24T09:31:59;41.00;18.40
70244;DHT22;57634;51.136;17.024;2023-07-24T09:35:01;40.70;18.60
70244;DHT22;57634;51.136;17.024;2023-07-24T09:38:10;40.60;18.60
70244;DHT22;57634;51.136;17.024;2023-07-24T09:41:15;41.00;18.80
70244;DHT22;57634;51.136;17.024;2023-07-24T09:44:17;41.20;18.40
70244;DHT22;57634;51.136;17.024;2023-07-24T09:47:18;41.20;18.50
70244;DHT22;57634;51.136;17.024;2023-07-24T09:50:19;40.90;18.60
70244;DHT22;57634;51.136;17.024;2023-07-24T09:57:03;40.40;18.80
70244;DHT22;57634;51.136;17.024;2023-07-24T10:00:06;40.20;18.90
70244;DHT22;57634;51.136;17.024;2023-07-24T10:03:09;39.80;19.00
70244;DHT22;57634;51.136;17.024;2023-07-24T10:06:11;39.20;19.50
70244;DHT22;57634;51.136;17.024;2023-07-24T10:09:16;38.30;19.80
70244;DHT22;57634;51.136;17.024;2023-07-24T10:12:22;37.50;20.40
70244;DHT22;57634;51.136;17.024;2023-07-24T10:15:56;36.70;21.00
70244;DHT22;57634;51.136;17.024;2023-07-24T10:18:58;36.10;21.80
70244;DHT22;57634;51.136;17.024;2023-07-24T10:22:00;35.70;22.20
70244;DHT22;57634;51.136;17.024;2023-07-24T10:25:04;35.30;22.40
70244;DHT22;57634;51.136;17.024;2023-07-24T10:28:08;34.80;22.90
70244;DHT22;57634;51.136;17.024;2023-07-24T10:31:19;34.30;23.20
70244;DHT22;57634;51.136;17.024;2023-07-24T10:34:21;34.00;23.50
70244;DHT22;57634;51.136;17.024;2023-07-24T10:37:31;33.60;23.90
70244;DHT22;57634;51.136;17.024;2023-07-24T10:41:05;33.20;24.30
70244;DHT22;57634;51.136;17.024;2023-07-24T10:44:07;32.80;24.90
70244;DHT22;57634;51.136;17.024;2023-07-24T10:47:08;32.50;25.30
70244;DHT22;57634;51.136;17.024;2023-07-24T10:50:10;32.20;25.70
70244;DHT22;57634;51.136;17.024;2023-07-24T10:53:15;32.00;26.00
70244;DHT22;57634;51.136;17.024;2023-07-24T10:56:17;31.90;26.20
70244;DHT22;57634;51.136;17.024;2023-07-24T10:59:19;31.70;26.50
70244;DHT22;57634;51.136;17.024;2023-07-24T11:02:21;31.50;26.80
70244;DHT22;57634;51.136;17.024;2023-07-24T11:05:23;31.40;27.10
70244;DHT22;57634;51.136;17.024;2023-07-24T11:08:25;31.30;27.40
70244;DHT22;57634;51.136;17.024;2023-07-24T11:11:30;31.20;27.50
70244;DHT22;57634;51.136;17.024;2023-07-24T11:14:58;31.30;27.60
70244;DHT22;57634;51.136;17.024;2023-07-24T11:18:00;31.40;27.80
70244;DHT22;57634;51.136;17.024;2023-07-24T11:21:03;31.40;27.80
70244;DHT22;57634;51.136;17.024;2023-07-24T11:24:07;31.40;27.70
70244;DHT22;57634;51.136;17.024;2023-07-24T11:27:15;31.50;27.90
70244;DHT22;57634;51.136;17.024;2023-07-24T11:30:21;31.50;27.80
70244;DHT22;57634;51.136;17.024;2023-07-24T11:33:23;31.50;27.80
70244;DHT22;57634;51.136;17.024;2023-07-24T11:36:27;31.50;27.90
70244;DHT22;57634;51.136;17.024;2023-07-24T11:39:28;31.40;28.20
70244;DHT22;57634;51.136;17.024;2023-07-24T11:42:30;31.40;28.20
70244;DHT22;57634;51.136;17.024;2023-07-24T11:45:57;31.50;28.30
70244;DHT22;57634;51.136;17.024;2023-07-24T11:48:58;31.60;28.30
70244;DHT22;57634;51.136;17.024;2023-07-24T11:52:00;31.60;28.20
70244;DHT22;57634;51.136;17.024;2023-07-24T11:55:04;31.70;28.40
70244;DHT22;57634;51.136;17.024;2023-07-24T11:58:06;31.80;28.30
70244;DHT22;57634;51.136;17.024;2023-07-24T12:01:07;31.90;28.30
70244;DHT22;57634;51.136;17.024;2023-07-24T12:04:09;32.00;28.10
70244;DHT22;57634;51.136;17.024;2023-07-24T12:07:11;32.00;28.10
70244;DHT22;57634;51.136;17.024;2023-07-24T12:10:23;32.10;28.00
70244;DHT22;57634;51.136;17.024;2023-07-24T12:13:20;32.20;27.90
70244;DHT22;57634;51.136;17.024;2023-07-24T12:16:21;32.00;27.80
70244;DHT22;57634;51.136;17.024;2023-07-24T12:19:23;32.00;27.90
70244;DHT22;57634;51.136;17.024;2023-07-24T12:22:49;31.90;27.80
70244;DHT22;57634;51.136;17.024;2023-07-24T12:25:51;31.90;27.90
70244;DHT22;57634;51.136;17.024;2023-07-24T12:28:52;31.80;28.00
70244;DHT22;57634;51.136;17.024;2023-07-24T12:31:53;31.90;28.00
70244;DHT22;57634;51.136;17.024;2023-07-24T12:34:54;31.90;27.90
70244;DHT22;57634;51.136;17.024;2023-07-24T12:37:56;31.90;27.90
70244;DHT22;57634;51.136;17.024;2023-07-24T12:40:58;31.90;27.90
70244;DHT22;57634;51.136;17.024;2023-07-24T12:43:59;31.80;27.90
70244;DHT22;57634;51.136;17.024;2023-07-24T12:47:00;31.80;28.00
70244;DHT22;57634;51.136;17.024;2023-07-24T12:50:02;31.80;28.00
70244;DHT22;57634;51.136;17.024;2023-07-24T12:53:03;31.80;28.00
70244;DHT22;57634;51.136;17.024;2023-07-24T12:56:05;31.70;28.10
70244;DHT22;57634;51.136;17.024;2023-07-24T12:59:07;31.70;28.20
70244;DHT22;57634;51.136;17.024;2023-07-24T13:02:08;31.70;28.30
70244;DHT22;57634;51.136;17.024;2023-07-24T13:05:37;31.80;28.40
70244;DHT22;57634;51.136;17.024;2023-07-24T13:08:40;31.80;28.50
70244;DHT22;57634;51.136;17.024;2023-07-24T13:11:42;31.90;28.60
70244;DHT22;57634;51.136;17.024;2023-07-24T13:14:43;31.90;28.60
70244;DHT22;57634;51.136;17.024;2023-07-24T13:17:45;32.00;28.70
70244;DHT22;57634;51.136;17.024;2023-07-24T13:20:47;32.00;28.60
70244;DHT22;57634;51.136;17.024;2023-07-24T13:23:48;32.00;28.60
70244;DHT22;57634;51.136;17.024;2023-07-24T13:26:50;32.00;28.60
70244;DHT22;57634;51.136;17.024;2023-07-24T13:29:51;32.00;28.50
70244;DHT22;57634;51.136;17.024;2023-07-24T13:32:52;31.90;28.40
70244;DHT22;57634;51.136;17.024;2023-07-24T13:35:54;31.80;28.10
70244;DHT22;57634;51.136;17.024;2023-07-24T13:38:56;31.80;28.00
70244;DHT22;57634;51.136;17.024;2023-07-24T13:41:58;31.80;28.00
70244;DHT22;57634;51.136;17.024;2023-07-24T13:45:28;31.80;28.10
70244;DHT22;57634;51.136;17.024;2023-07-24T13:48:30;31.80;28.20
70244;DHT22;57634;51.136;17.024;2023-07-24T13:51:32;31.80;28.20
70244;DHT22;57634;51.136;17.024;2023-07-24T13:54:33;31.70;28.10
70244;DHT22;57634;51.136;17.024;2023-07-24T13:57:35;31.70;28.20
70244;DHT22;57634;51.136;17.024;2023-07-24T14:00:37;31.70;28.10
70244;DHT22;57634;51.136;17.024;2023-07-24T14:03:38;31.70;27.90
70244;DHT22;57634;51.136;17.024;2023-07-24T14:06:40;31.80;27.80
70244;DHT22;57634;51.136;17.024;2023-07-24T14:09:42;31.80;27.70
70244;DHT22;57634;51.136;17.024;2023-07-24T14:12:43;31.90;27.60
70244;DHT22;57634;51.136;17.024;2023-07-24T14:15:45;31.80;27.70
70244;DHT22;57634;51.136;17.024;2023-07-24T14:18:46;31.80;27.90
70244;DHT22;57634;51.136;17.024;2023-07-24T14:21:47;31.80;28.00
70244;DHT22;57634;51.136;17.024;2023-07-24T14:24:49;31.80;28.00
70244;DHT22;57634;51.136;17.024;2023-07-24T14:28:15;31.80;28.10
70244;DHT22;57634;51.136;17.024;2023-07-24T14:31:17;31.80;28.30
70244;DHT22;57634;51.136;17.024;2023-07-24T14:34:18;31.80;28.40
70244;DHT22;57634;51.136;17.024;2023-07-24T14:37:20;31.90;28.40
70244;DHT22;57634;51.136;17.024;2023-07-24T14:40:21;31.90;28.40
70244;DHT22;57634;51.136;17.024;2023-07-24T14:43:22;31.90;28.50
70244;DHT22;57634;51.136;17.024;2023-07-24T14:46:24;32.00;28.50
70244;DHT22;57634;51.136;17.024;2023-07-24T14:49:26;32.10;28.50
70244;DHT22;57634;51.136;17.024;2023-07-24T14:52:27;32.10;28.40
70244;DHT22;57634;51.136;17.024;2023-07-24T14:55:28;32.20;28.20
70244;DHT22;57634;51.136;17.024;2023-07-24T14:58:30;32.20;28.30
70244;DHT22;57634;51.136;17.024;2023-07-24T15:01:32;32.10;28.30
70244;DHT22;57634;51.136;17.024;2023-07-24T15:04:33;32.10;28.40
70244;DHT22;57634;51.136;17.024;2023-07-24T15:07:35;32.00;28.40
70244;DHT22;57634;51.136;17.024;2023-07-24T15:11:03;31.90;28.50
70244;DHT22;57634;51.136;17.024;2023-07-24T15:14:04;31.70;28.60
70244;DHT22;57634;51.136;17.024;2023-07-24T15:17:06;31.60;28.70
70244;DHT22;57634;51.136;17.024;2023-07-24T15:20:08;31.60;28.90
70244;DHT22;57634;51.136;17.024;2023-07-24T15:23:10;31.40;28.90
70244;DHT22;57634;51.136;17.024;2023-07-24T15:26:11;31.30;29.20
70244;DHT22;57634;51.136;17.024;2023-07-24T15:29:13;31.20;29.30
70244;DHT22;57634;51.136;17.024;2023-07-24T15:32:17;31.10;29.40
70244;DHT22;57634;51.136;17.024;2023-07-24T15:35:19;31.00;29.50
70244;DHT22;57634;51.136;17.024;2023-07-24T15:38:20;30.90;29.70
70244;DHT22;57634;51.136;17.024;2023-07-24T15:41:22;30.90;29.90
70244;DHT22;57634;51.136;17.024;2023-07-24T15:44:23;30.90;29.90
70244;DHT22;57634;51.136;17.024;2023-07-24T15:47:24;30.80;30.00
70244;DHT22;57634;51.136;17.024;2023-07-24T15:50:54;30.80;30.10
70244;DHT22;57634;51.136;17.024;2023-07-24T15:53:56;30.80;30.20
70244;DHT22;57634;51.136;17.024;2023-07-24T15:56:57;30.80;30.40
70244;DHT22;57634;51.136;17.024;2023-07-24T15:59:59;30.70;30.50
70244;DHT22;57634;51.136;17.024;2023-07-24T16:03:00;30.70;30.60
70244;DHT22;57634;51.136;17.024;2023-07-24T16:06:02;30.70;30.80
70244;DHT22;57634;51.136;17.024;2023-07-24T16:09:04;30.60;30.70
70244;DHT22;57634;51.136;17.024;2023-07-24T16:12:06;30.50;30.80
70244;DHT22;57634;51.136;17.024;2023-07-24T16:15:08;30.40;30.90
70244;DHT22;57634;51.136;17.024;2023-07-24T16:18:10;30.30;31.10
70244;DHT22;57634;51.136;17.024;2023-07-24T16:21:12;30.20;31.30
70244;DHT22;57634;51.136;17.024;2023-07-24T16:24:14;30.10;31.50
70244;DHT22;57634;51.136;17.024;2023-07-24T16:27:17;30.00;31.60
70244;DHT22;57634;51.136;17.024;2023-07-24T16:30:44;29.90;31.80
70244;DHT22;57634;51.136;17.024;2023-07-24T16:33:46;29.90;32.50
70244;DHT22;57634;51.136;17.024;2023-07-24T16:36:47;29.90;32.70
70244;DHT22;57634;51.136;17.024;2023-07-24T16:39:48;29.80;32.80
70244;DHT22;57634;51.136;17.024;2023-07-24T16:42:49;29.80;33.10
70244;DHT22;57634;51.136;17.024;2023-07-24T16:45:51;29.80;33.60
70244;DHT22;57634;51.136;17.024;2023-07-24T16:48:53;29.70;33.30
70244;DHT22;57634;51.136;17.024;2023-07-24T16:54:53;29.60;33.60
70244;DHT22;57634;51.136;17.024;2023-07-24T16:57:55;29.40;33.80
70244;DHT22;57634;51.136;17.024;2023-07-24T17:00:56;29.30;34.10
70244;DHT22;57634;51.136;17.024;2023-07-24T17:03:57;29.20;34.50
70244;DHT22;57634;51.136;17.024;2023-07-24T17:06:59;29.10;34.70
70244;DHT22;57634;51.136;17.024;2023-07-24T17:10:02;29.00;34.90
70244;DHT22;57634;51.136;17.024;2023-07-24T17:13:04;28.90;35.10
70244;DHT22;57634;51.136;17.024;2023-07-24T17:16:05;28.90;35.30
70244;DHT22;57634;51.136;17.024;2023-07-24T17:19:07;28.80;35.50
70244;DHT22;57634;51.136;17.024;2023-07-24T17:22:10;28.70;35.60
70244;DHT22;57634;51.136;17.024;2023-07-24T17:25:11;28.60;35.80
70244;DHT22;57634;51.136;17.024;2023-07-24T17:28:13;28.60;36.00
70244;DHT22;57634;51.136;17.024;2023-07-24T17:31:14;28.60;36.20
70244;DHT22;57634;51.136;17.024;2023-07-24T17:34:41;28.50;36.40
70244;DHT22;57634;51.136;17.024;2023-07-24T17:37:43;28.40;36.80
70244;DHT22;57634;51.136;17.024;2023-07-24T17:40:44;28.30;37.00
70244;DHT22;57634;51.136;17.024;2023-07-24T17:43:46;28.30;37.20
70244;DHT22;57634;51.136;17.024;2023-07-24T17:46:47;28.20;37.30
70244;DHT22;57634;51.136;17.024;2023-07-24T17:49:48;28.20;37.50
70244;DHT22;57634;51.136;17.024;2023-07-24T17:52:50;28.20;37.60
70244;DHT22;57634;51.136;17.024;2023-07-24T17:55:51;28.10;37.60
70244;DHT22;57634;51.136;17.024;2023-07-24T17:58:53;28.10;37.80
70244;DHT22;57634;51.136;17.024;2023-07-24T18:01:55;28.20;37.90
70244;DHT22;57634;51.136;17.024;2023-07-24T18:04:56;28.20;38.00
70244;DHT22;57634;51.136;17.024;2023-07-24T18:07:57;28.20;38.10
70244;DHT22;57634;51.136;17.024;2023-07-24T18:10:59;28.20;38.10
70244;DHT22;57634;51.136;17.024;2023-07-24T18:14:01;28.20;38.20
70244;DHT22;57634;51.136;17.024;2023-07-24T18:17:29;28.10;38.20
70244;DHT22;57634;51.136;17.024;2023-07-24T18:20:31;28.10;38.40
70244;DHT22;57634;51.136;17.024;2023-07-24T18:23:32;28.10;38.60
70244;DHT22;57634;51.136;17.024;2023-07-24T18:26:34;28.00;38.80
70244;DHT22;57634;51.136;17.024;2023-07-24T18:29:36;28.00;38.90
70244;DHT22;57634;51.136;17.024;2023-07-24T18:32:40;28.00;39.00
70244;DHT22;57634;51.136;17.024;2023-07-24T18:35:42;27.90;39.00
70244;DHT22;57634;51.136;17.024;2023-07-24T18:38:44;27.90;39.10
70244;DHT22;57634;51.136;17.024;2023-07-24T18:41:45;27.90;39.20
70244;DHT22;57634;51.136;17.024;2023-07-24T18:44:47;27.80;39.40
70244;DHT22;57634;51.136;17.024;2023-07-24T18:47:48;27.70;39.50
70244;DHT22;57634;51.136;17.024;2023-07-24T18:50:49;27.70;39.70
70244;DHT22;57634;51.136;17.024;2023-07-24T18:53:51;27.60;39.80
70244;DHT22;57634;51.136;17.024;2023-07-24T18:57:20;27.50;39.90
70244;DHT22;57634;51.136;17.024;2023-07-24T19:00:22;27.50;40.10
70244;DHT22;57634;51.136;17.024;2023-07-24T19:03:23;27.40;40.30
70244;DHT22;57634;51.136;17.024;2023-07-24T19:06:25;27.40;40.50
70244;DHT22;57634;51.136;17.024;2023-07-24T19:09:26;27.30;40.60
70244;DHT22;57634;51.136;17.024;2023-07-24T19:12:28;27.30;40.60
70244;DHT22;57634;51.136;17.024;2023-07-24T19:15:29;27.30;40.50
70244;DHT22;57634;51.136;17.024;2023-07-24T19:18:32;27.20;40.30